sensor_id;sensor_type;location;lat;lon;timestamp;pressure;altitude;pressure_sealevel;temperature;humidity
21877;BME280;11103;43.788;23.710;2023-01-30T00:00:55;147073.56;;;2.78;100.00
21877;BME280;11103;43.788;23.710;2023-01-30T00:03:21;147064.66;;;2.75;100.00
21877;BME280;11103;43.788;23.710;2023-01-30T00:05:47;147050.66;;;2.69;100.00
21877;BME280;11103;43.788;23.710;2023-01-30T00:08:13;147039.25;;;2.65;100.00
21877;BME280;11103;43.788;23.710;2023-01-30T00:10:38;147046.88;;;2.68;100.00
21877;BME280;11103;43.788;23.710;2023-01-30T00:13:04;147045.59;;;2.67;100.00
21877;BME280;11103;43.788;23.710;2023-01-30T00:15:29;147034.19;;;2.63;100.00
21877;BME280;11103;43.788;23.710;2023-01-30T00:17:55;147049.44;;;2.69;100.00
21877;BME280;11103;43.788;23.710;2023-01-30T00:20:20;147044.31;;;2.67;100.00
21877;BME280;11103;43.788;23.710;2023-01-30T00:22:46;147051.94;;;2.70;100.00
21877;BME280;11103;43.788;23.710;2023-01-30T00:25:11;147050.66;;;2.69;100.00
21877;BME280;11103;43.788;23.710;2023-01-30T00:27:36;147043.09;;;2.66;100.00
21877;BME280;11103;43.788;23.710;2023-01-30T00:30:02;147043.09;;;2.66;100.00
21877;BME280;11103;43.788;23.710;2023-01-30T00:32:30;147051.94;;;2.70;100.00
21877;BME280;11103;43.788;23.710;2023-01-30T00:34:56;147050.66;;;2.69;100.00
21877;BME280;11103;43.788;23.710;2023-01-30T00:37:21;147044.31;;;2.67;100.00
21877;BME280;11103;43.788;23.710;2023-01-30T00:39:46;147051.94;;;2.70;100.00
21877;BME280;11103;43.788;23.710;2023-01-30T00:42:12;147051.94;;;2.70;100.00
21877;BME280;11103;43.788;23.710;2023-01-30T00:44:55;147043.09;;;2.66;100.00
21877;BME280;11103;43.788;23.710;2023-01-30T00:47:39;147044.31;;;2.67;100.00
21877;BME280;11103;43.788;23.710;2023-01-30T00:50:05;147036.69;;;2.64;100.00
21877;BME280;11103;43.788;23.710;2023-01-30T00:52:31;147036.69;;;2.64;100.00
21877;BME280;11103;43.788;23.710;2023-01-30T00:54:56;147044.31;;;2.67;100.00
21877;BME280;11103;43.788;23.710;2023-01-30T00:57:21;147032.91;;;2.62;100.00
21877;BME280;11103;43.788;23.710;2023-01-30T00:59:47;147037.97;;;2.64;100.00
21877;BME280;11103;43.788;23.710;2023-01-30T01:02:12;147041.81;;;2.66;100.00
21877;BME280;11103;43.788;23.710;2023-01-30T01:04:37;147054.50;;;2.71;100.00
21877;BME280;11103;43.788;23.710;2023-01-30T01:07:11;147032.91;;;2.62;100.00
21877;BME280;11103;43.788;23.710;2023-01-30T01:09:38;147039.25;;;2.65;100.00
21877;BME280;11103;43.788;23.710;2023-01-30T01:12:04;147039.25;;;2.65;100.00
21877;BME280;11103;43.788;23.710;2023-01-30T01:14:30;147043.09;;;2.66;100.00
21877;BME280;11103;43.788;23.710;2023-01-30T01:16:56;147036.69;;;2.64;100.00
21877;BME280;11103;43.788;23.710;2023-01-30T01:19:21;147023.97;;;2.59;100.00
21877;BME280;11103;43.788;23.710;2023-01-30T01:21:47;147027.81;;;2.60;100.00
21877;BME280;11103;43.788;23.710;2023-01-30T01:24:13;147040.53;;;2.65;100.00
21877;BME280;11103;43.788;23.710;2023-01-30T01:26:40;147018.91;;;2.57;100.00
21877;BME280;11103;43.788;23.710;2023-01-30T01:29:06;147037.97;;;2.64;100.00
21877;BME280;11103;43.788;23.710;2023-01-30T01:31:33;147051.94;;;2.70;100.00
21877;BME280;11103;43.788;23.710;2023-01-30T01:33:58;147041.81;;;2.66;100.00
21877;BME280;11103;43.788;23.710;2023-01-30T01:36:24;147034.19;;;2.63;100.00
21877;BME280;11103;43.788;23.710;2023-01-30T01:38:49;147032.91;;;2.62;100.00
21877;BME280;11103;43.788;23.710;2023-01-30T01:41:16;147050.66;;;2.69;100.00
21877;BME280;11103;43.788;23.710;2023-01-30T01:49:07;147034.19;;;2.63;100.00
21877;BME280;11103;43.788;23.710;2023-01-30T01:51:37;147039.25;;;2.65;100.00
21877;BME280;11103;43.788;23.710;2023-01-30T01:54:11;147012.56;;;2.54;100.00
21877;BME280;11103;43.788;23.710;2023-01-30T01:56:41;147012.56;;;2.54;100.00
21877;BME280;11103;43.788;23.710;2023-01-30T01:59:13;147025.25;;;2.59;100.00
21877;BME280;11103;43.788;23.710;2023-01-30T02:01:39;147021.47;;;2.58;100.00
21877;BME280;11103;43.788;23.710;2023-01-30T02:04:06;147046.88;;;2.68;100.00
21877;BME280;11103;43.788;23.710;2023-01-30T02:06:34;147026.56;;;2.60;100.00
21877;BME280;11103;43.788;23.710;2023-01-30T02:09:04;147051.94;;;2.70;100.00
21877;BME280;11103;43.788;23.710;2023-01-30T02:11:44;147018.91;;;2.57;100.00
21877;BME280;11103;43.788;23.710;2023-01-30T02:14:12;147039.25;;;2.65;100.00
21877;BME280;11103;43.788;23.710;2023-01-30T02:16:38;147031.63;;;2.62;100.00
21877;BME280;11103;43.788;23.710;2023-01-30T02:22:08;147036.69;;;2.64;100.00
21877;BME280;11103;43.788;23.710;2023-01-30T02:33:15;147031.63;;;2.62;100.00
21877;BME280;11103;43.788;23.710;2023-01-30T02:43:57;147035.44;;;2.63;100.00
21877;BME280;11103;43.788;23.710;2023-01-30T02:50:10;147032.91;;;2.62;100.00
21877;BME280;11103;43.788;23.710;2023-01-30T02:52:38;147023.97;;;2.59;100.00
21877;BME280;11103;43.788;23.710;2023-01-30T02:55:18;147030.34;;;2.61;100.00
21877;BME280;11103;43.788;23.710;2023-01-30T02:57:44;146996.03;;;2.48;100.00
21877;BME280;11103;43.788;23.710;2023-01-30T03:00:10;147018.91;;;2.57;100.00
21877;BME280;11103;43.788;23.710;2023-01-30T03:03:13;147016.38;;;2.56;100.00
21877;BME280;11103;43.788;23.710;2023-01-30T03:08:42;147039.25;;;2.65;100.00
21877;BME280;11103;43.788;23.710;2023-01-30T03:11:10;147023.97;;;2.59;100.00
21877;BME280;11103;43.788;23.710;2023-01-30T03:13:43;147018.91;;;2.57;100.00
21877;BME280;11103;43.788;23.710;2023-01-30T03:16:12;147022.75;;;2.58;100.00
21877;BME280;11103;43.788;23.710;2023-01-30T03:18:41;147008.78;;;2.53;100.00
21877;BME280;11103;43.788;23.710;2023-01-30T03:21:07;147015.13;;;2.55;100.00
21877;BME280;11103;43.788;23.710;2023-01-30T03:23:33;146975.72;;;2.39;100.00
21877;BME280;11103;43.788;23.710;2023-01-30T03:25:59;146988.47;;;2.45;100.00
21877;BME280;11103;43.788;23.710;2023-01-30T03:28:27;146988.47;;;2.45;100.00
21877;BME280;11103;43.788;23.710;2023-01-30T03:30:52;146997.31;;;2.48;100.00
21877;BME280;11103;43.788;23.710;2023-01-30T03:33:17;146988.47;;;2.45;100.00
21877;BME280;11103;43.788;23.710;2023-01-30T03:35:43;147001.16;;;2.50;100.00
21877;BME280;11103;43.788;23.710;2023-01-30T03:38:09;146983.34;;;2.42;100.00
21877;BME280;11103;43.788;23.710;2023-01-30T03:40:35;146974.47;;;2.39;100.00
21877;BME280;11103;43.788;23.710;2023-01-30T03:43:00;146966.84;;;2.36;100.00
21877;BME280;11103;43.788;23.710;2023-01-30T03:45:26;146970.63;;;2.37;100.00
21877;BME280;11103;43.788;23.710;2023-01-30T03:47:51;146973.19;;;2.38;100.00
21877;BME280;11103;43.788;23.710;2023-01-30T03:50:16;146970.63;;;2.37;100.00
21877;BME280;11103;43.788;23.710;2023-01-30T03:52:42;146961.72;;;2.34;100.00
21877;BME280;11103;43.788;23.710;2023-01-30T03:55:08;146942.69;;;2.26;100.00
21877;BME280;11103;43.788;23.710;2023-01-30T03:57:34;146971.91;;;2.38;100.00
21877;BME280;11103;43.788;23.710;2023-01-30T03:59:59;146974.47;;;2.39;100.00
21877;BME280;11103;43.788;23.710;2023-01-30T04:02:24;146975.72;;;2.39;100.00
21877;BME280;11103;43.788;23.710;2023-01-30T04:04:51;146989.69;;;2.45;100.00
21877;BME280;11103;43.788;23.710;2023-01-30T04:07:16;146969.38;;;2.37;100.00
21877;BME280;11103;43.788;23.710;2023-01-30T04:09:42;146961.72;;;2.34;100.00
21877;BME280;11103;43.788;23.710;2023-01-30T04:12:07;146970.63;;;2.37;100.00
21877;BME280;11103;43.788;23.710;2023-01-30T04:14:32;146960.50;;;2.33;100.00
21877;BME280;11103;43.788;23.710;2023-01-30T04:16:58;146971.91;;;2.38;100.00
21877;BME280;11103;43.788;23.710;2023-01-30T04:19:23;146950.31;;;2.29;100.00
21877;BME280;11103;43.788;23.710;2023-01-30T04:21:49;146969.38;;;2.37;100.00
21877;BME280;11103;43.788;23.710;2023-01-30T04:24:14;146975.72;;;2.39;100.00
21877;BME280;11103;43.788;23.710;2023-01-30T04:26:40;146970.63;;;2.37;100.00
21877;BME280;11103;43.788;23.710;2023-01-30T04:29:05;146990.97;;;2.46;100.00
21877;BME280;11103;43.788;23.710;2023-01-30T04:31:31;146978.28;;;2.40;100.00
21877;BME280;11103;43.788;23.710;2023-01-30T04:33:56;146968.09;;;2.36;100.00
21877;BME280;11103;43.788;23.710;2023-01-30T04:36:21;146985.91;;;2.44;100.00
21877;BME280;11103;43.788;23.710;2023-01-30T04:38:47;146978.28;;;2.40;100.00
21877;BME280;11103;43.788;23.710;2023-01-30T04:41:12;146970.63;;;2.37;100.00
21877;BME280;11103;43.788;23.710;2023-01-30T04:43:37;146985.91;;;2.44;100.00
21877;BME280;11103;43.788;23.710;2023-01-30T04:46:05;146960.50;;;2.33;100.00
21877;BME280;11103;43.788;23.710;2023-01-30T04:48:30;146980.81;;;2.42;100.00
21877;BME280;11103;43.788;23.710;2023-01-30T04:50:56;146952.88;;;2.30;100.00
21877;BME280;11103;43.788;23.710;2023-01-30T04:53:22;146949.03;;;2.29;100.00
21877;BME280;11103;43.788;23.710;2023-01-30T04:55:48;146952.88;;;2.30;100.00
21877;BME280;11103;43.788;23.710;2023-01-30T04:58:14;146952.88;;;2.30;100.00
21877;BME280;11103;43.788;23.710;2023-01-30T05:00:40;146945.25;;;2.27;100.00
21877;BME280;11103;43.788;23.710;2023-01-30T05:03:05;146935.06;;;2.23;100.00
21877;BME280;11103;43.788;23.710;2023-01-30T05:05:31;146938.91;;;2.25;100.00
21877;BME280;11103;43.788;23.710;2023-01-30T05:07:57;146924.94;;;2.19;100.00
21877;BME280;11103;43.788;23.710;2023-01-30T05:10:22;146936.34;;;2.24;100.00
21877;BME280;11103;43.788;23.710;2023-01-30T05:12:48;146924.94;;;2.19;100.00
21877;BME280;11103;43.788;23.710;2023-01-30T05:15:14;146947.75;;;2.28;100.00
21877;BME280;11103;43.788;23.710;2023-01-30T05:17:39;146909.69;;;2.13;100.00
21877;BME280;11103;43.788;23.710;2023-01-30T05:20:07;146908.41;;;2.13;100.00
21877;BME280;11103;43.788;23.710;2023-01-30T05:22:33;146916.03;;;2.16;100.00
21877;BME280;11103;43.788;23.710;2023-01-30T05:24:59;146923.66;;;2.19;100.00
21877;BME280;11103;43.788;23.710;2023-01-30T05:27:24;146919.88;;;2.17;100.00
21877;BME280;11103;43.788;23.710;2023-01-30T05:29:50;146899.50;;;2.09;100.00
21877;BME280;11103;43.788;23.710;2023-01-30T05:32:16;146891.91;;;2.06;100.00
21877;BME280;11103;43.788;23.710;2023-01-30T05:34:42;146891.91;;;2.06;100.00
21877;BME280;11103;43.788;23.710;2023-01-30T05:37:08;146881.75;;;2.02;100.00
21877;BME280;11103;43.788;23.710;2023-01-30T05:39:34;146899.50;;;2.09;100.00
21877;BME280;11103;43.788;23.710;2023-01-30T05:42:00;146880.47;;;2.02;100.00
21877;BME280;11103;43.788;23.710;2023-01-30T05:44:25;146886.81;;;2.04;100.00
21877;BME280;11103;43.788;23.710;2023-01-30T05:46:50;146886.81;;;2.04;100.00
21877;BME280;11103;43.788;23.710;2023-01-30T05:49:16;146884.31;;;2.03;100.00
21877;BME280;11103;43.788;23.710;2023-01-30T05:51:41;146858.88;;;1.93;100.00
21877;BME280;11103;43.788;23.710;2023-01-30T05:54:07;146879.19;;;2.01;100.00
21877;BME280;11103;43.788;23.710;2023-01-30T05:56:33;146843.66;;;1.87;100.00
21877;BME280;11103;43.788;23.710;2023-01-30T05:58:59;146866.50;;;1.96;100.00
21877;BME280;11103;43.788;23.710;2023-01-30T06:01:25;146876.69;;;2.00;100.00
21877;BME280;11103;43.788;23.710;2023-01-30T06:03:52;146879.19;;;2.01;100.00
21877;BME280;11103;43.788;23.710;2023-01-30T06:06:18;146889.38;;;2.05;100.00
21877;BME280;11103;43.788;23.710;2023-01-30T06:08:43;146893.16;;;2.07;100.00
21877;BME280;11103;43.788;23.710;2023-01-30T06:11:11;146909.69;;;2.13;100.00
21877;BME280;11103;43.788;23.710;2023-01-30T06:13:37;146921.09;;;2.18;100.00
21877;BME280;11103;43.788;23.710;2023-01-30T06:16:04;146895.72;;;2.08;100.00
21877;BME280;11103;43.788;23.710;2023-01-30T06:18:29;146855.06;;;1.92;100.00
21877;BME280;11103;43.788;23.710;2023-01-30T06:20:55;146884.31;;;2.03;100.00
21877;BME280;11103;43.788;23.710;2023-01-30T06:23:21;146880.47;;;2.02;100.00
21877;BME280;11103;43.788;23.710;2023-01-30T06:25:50;146861.44;;;1.94;100.00
21877;BME280;11103;43.788;23.710;2023-01-30T06:28:16;146876.69;;;2.00;100.00
21877;BME280;11103;43.788;23.710;2023-01-30T06:30:42;146886.81;;;2.04;100.00
21877;BME280;11103;43.788;23.710;2023-01-30T06:33:08;146904.63;;;2.11;100.00
21877;BME280;11103;43.788;23.710;2023-01-30T06:35:33;146898.25;;;2.09;100.00
21877;BME280;11103;43.788;23.710;2023-01-30T06:38:01;146902.06;;;2.10;100.00
21877;BME280;11103;43.788;23.710;2023-01-30T06:40:26;146910.97;;;2.14;100.00
21877;BME280;11103;43.788;23.710;2023-01-30T06:42:51;146900.78;;;2.10;100.00
21877;BME280;11103;43.788;23.710;2023-01-30T06:45:17;146912.25;;;2.14;100.00
21877;BME280;11103;43.788;23.710;2023-01-30T06:47:48;146936.34;;;2.24;100.00
21877;BME280;11103;43.788;23.710;2023-01-30T06:50:14;146921.09;;;2.18;100.00
21877;BME280;11103;43.788;23.710;2023-01-30T06:52:44;146913.47;;;2.15;100.00
21877;BME280;11103;43.788;23.710;2023-01-30T06:55:12;146955.38;;;2.31;100.00
21877;BME280;11103;43.788;23.710;2023-01-30T06:57:38;146965.56;;;2.35;100.00
21877;BME280;11103;43.788;23.710;2023-01-30T07:00:05;146983.34;;;2.42;100.00
21877;BME280;11103;43.788;23.710;2023-01-30T07:02:32;146997.31;;;2.48;100.00
21877;BME280;11103;43.788;23.710;2023-01-30T07:05:00;147010.00;;;2.53;100.00
21877;BME280;11103;43.788;23.710;2023-01-30T07:07:27;147023.97;;;2.59;100.00
21877;BME280;11103;43.788;23.710;2023-01-30T07:09:52;147018.91;;;2.57;100.00
21877;BME280;11103;43.788;23.710;2023-01-30T07:12:18;147030.34;;;2.61;100.00
21877;BME280;11103;43.788;23.710;2023-01-30T07:14:44;147029.09;;;2.61;100.00
21877;BME280;11103;43.788;23.710;2023-01-30T07:17:09;147030.34;;;2.61;100.00
21877;BME280;11103;43.788;23.710;2023-01-30T07:19:35;147037.97;;;2.64;100.00
21877;BME280;11103;43.788;23.710;2023-01-30T07:22:00;147041.81;;;2.66;100.00
21877;BME280;11103;43.788;23.710;2023-01-30T07:24:26;147021.47;;;2.58;100.00
21877;BME280;11103;43.788;23.710;2023-01-30T07:26:51;147057.00;;;2.72;100.00
21877;BME280;11103;43.788;23.710;2023-01-30T07:29:16;147054.50;;;2.71;100.00
21877;BME280;11103;43.788;23.710;2023-01-30T07:31:42;147055.78;;;2.71;100.00
21877;BME280;11103;43.788;23.710;2023-01-30T07:34:07;147063.41;;;2.74;100.00
21877;BME280;11103;43.788;23.710;2023-01-30T07:36:33;147067.19;;;2.76;99.30
21877;BME280;11103;43.788;23.710;2023-01-30T07:38:59;147082.47;;;2.82;99.67
21877;BME280;11103;43.788;23.710;2023-01-30T07:41:26;147110.44;;;2.93;97.32
21877;BME280;11103;43.788;23.710;2023-01-30T07:43:51;147161.25;;;3.13;95.61
21877;BME280;11103;43.788;23.710;2023-01-30T07:46:17;147139.63;;;3.05;93.51
21877;BME280;11103;43.788;23.710;2023-01-30T07:48:43;147173.94;;;3.18;92.57
21877;BME280;11103;43.788;23.710;2023-01-30T07:51:09;147194.28;;;3.26;91.04
21877;BME280;11103;43.788;23.710;2023-01-30T07:53:35;147196.84;;;3.27;90.75
21877;BME280;11103;43.788;23.710;2023-01-30T07:56:06;147181.59;;;3.21;89.35
21877;BME280;11103;43.788;23.710;2023-01-30T07:58:32;147173.94;;;3.18;88.86
21877;BME280;11103;43.788;23.710;2023-01-30T08:00:58;147189.22;;;3.24;87.75
21877;BME280;11103;43.788;23.710;2023-01-30T08:03:23;147163.81;;;3.14;87.80
21877;BME280;11103;43.788;23.710;2023-01-30T08:05:48;147163.81;;;3.14;87.92
21877;BME280;11103;43.788;23.710;2023-01-30T08:08:14;147168.88;;;3.16;88.00
21877;BME280;11103;43.788;23.710;2023-01-30T08:10:40;147184.13;;;3.22;89.38
21877;BME280;11103;43.788;23.710;2023-01-30T08:13:05;147222.25;;;3.37;87.62
21877;BME280;11103;43.788;23.710;2023-01-30T08:15:31;147247.72;;;3.47;84.17
21877;BME280;11103;43.788;23.710;2023-01-30T08:17:57;147242.59;;;3.45;85.75
21877;BME280;11103;43.788;23.710;2023-01-30T08:20:24;147251.50;;;3.49;84.72
21877;BME280;11103;43.788;23.710;2023-01-30T08:22:50;147240.09;;;3.44;85.54
21877;BME280;11103;43.788;23.710;2023-01-30T08:25:16;147250.22;;;3.48;83.28
21877;BME280;11103;43.788;23.710;2023-01-30T08:27:41;147275.72;;;3.58;81.78
21877;BME280;11103;43.788;23.710;2023-01-30T08:30:08;147284.56;;;3.62;81.83
21877;BME280;11103;43.788;23.710;2023-01-30T08:32:33;147308.75;;;3.72;82.60
21877;BME280;11103;43.788;23.710;2023-01-30T08:34:59;147334.19;;;3.82;81.41
21877;BME280;11103;43.788;23.710;2023-01-30T08:37:24;147358.38;;;3.91;79.52
21877;BME280;11103;43.788;23.710;2023-01-30T08:39:49;147350.75;;;3.88;80.50
21877;BME280;11103;43.788;23.710;2023-01-30T08:42:15;147358.38;;;3.91;81.03
21877;BME280;11103;43.788;23.710;2023-01-30T08:44:40;147387.59;;;4.03;80.91
21877;BME280;11103;43.788;23.710;2023-01-30T08:47:06;147409.25;;;4.11;80.05
21877;BME280;11103;43.788;23.710;2023-01-30T08:49:31;147399.09;;;4.07;79.39
21877;BME280;11103;43.788;23.710;2023-01-30T08:51:56;147391.44;;;4.04;79.30
21877;BME280;11103;43.788;23.710;2023-01-30T08:54:22;147395.25;;;4.06;78.00
21877;BME280;11103;43.788;23.710;2023-01-30T08:56:47;147400.31;;;4.08;80.31
21877;BME280;11103;43.788;23.710;2023-01-30T08:59:13;147418.16;;;4.15;80.07
21877;BME280;11103;43.788;23.710;2023-01-30T09:01:38;147420.69;;;4.16;nan
21877;BME280;11103;43.788;23.710;2023-01-30T09:04:04;147435.97;;;4.22;82.14
21877;BME280;11103;43.788;23.710;2023-01-30T09:06:29;147444.88;;;4.26;82.02
21877;BME280;11103;43.788;23.710;2023-01-30T09:08:55;147466.53;;;4.34;82.96
21877;BME280;11103;43.788;23.710;2023-01-30T09:11:20;147513.59;;;4.53;83.25
21877;BME280;11103;43.788;23.710;2023-01-30T09:13:46;147513.59;;;4.53;82.59
21877;BME280;11103;43.788;23.710;2023-01-30T09:16:11;147539.06;;;4.63;81.55
21877;BME280;11103;43.788;23.710;2023-01-30T09:18:41;147569.63;;;4.75;80.24
21877;BME280;11103;43.788;23.710;2023-01-30T09:21:08;147542.91;;;4.64;77.01
21877;BME280;11103;43.788;23.710;2023-01-30T09:23:34;147550.50;;;4.67;76.28
21877;BME280;11103;43.788;23.710;2023-01-30T09:26:00;147553.06;;;4.68;74.33
21877;BME280;11103;43.788;23.710;2023-01-30T09:28:26;147555.63;;;4.69;72.98
21877;BME280;11103;43.788;23.710;2023-01-30T09:30:52;147564.50;;;4.73;72.75
21877;BME280;11103;43.788;23.710;2023-01-30T09:33:17;147564.50;;;4.73;74.31
21877;BME280;11103;43.788;23.710;2023-01-30T09:35:48;147605.28;;;4.89;73.12
21877;BME280;11103;43.788;23.710;2023-01-30T09:38:14;147621.81;;;4.96;72.06
21877;BME280;11103;43.788;23.710;2023-01-30T09:40:53;147612.88;;;4.92;70.68
21877;BME280;11103;43.788;23.710;2023-01-30T09:46:52;147670.22;;;5.15;70.26
21877;BME280;11103;43.788;23.710;2023-01-30T09:54:45;147606.53;;;4.90;73.66
21877;BME280;11103;43.788;23.710;2023-01-30T09:57:22;147565.78;;;4.73;74.86
21877;BME280;11103;43.788;23.710;2023-01-30T10:00:02;147574.72;;;4.77;77.13
21877;BME280;11103;43.788;23.710;2023-01-30T10:02:30;147578.50;;;4.78;78.77
21877;BME280;11103;43.788;23.710;2023-01-30T10:04:59;147619.25;;;4.95;76.94
21877;BME280;11103;43.788;23.710;2023-01-30T10:10:33;147681.66;;;5.19;73.40
21877;BME280;11103;43.788;23.710;2023-01-30T10:18:57;147690.56;;;5.23;71.37
21877;BME280;11103;43.788;23.710;2023-01-30T10:21:40;147651.13;;;5.07;72.02
21877;BME280;11103;43.788;23.710;2023-01-30T10:24:22;147671.50;;;5.15;72.14
21877;BME280;11103;43.788;23.710;2023-01-30T10:26:54;147672.78;;;5.16;73.35
21877;BME280;11103;43.788;23.710;2023-01-30T10:29:25;147682.94;;;5.20;72.81
21877;BME280;11103;43.788;23.710;2023-01-30T10:31:58;147716.03;;;5.33;72.65
21877;BME280;11103;43.788;23.710;2023-01-30T10:34:30;147698.22;;;5.26;72.23
21877;BME280;11103;43.788;23.710;2023-01-30T10:37:05;147736.41;;;5.41;72.43
21877;BME280;11103;43.788;23.710;2023-01-30T10:39:53;147721.16;;;5.35;69.42
21877;BME280;11103;43.788;23.710;2023-01-30T10:45:09;147652.41;;;5.08;69.45
21877;BME280;11103;43.788;23.710;2023-01-30T10:53:33;147561.97;;;4.72;70.57
21877;BME280;11103;43.788;23.710;2023-01-30T10:59:01;147550.50;;;4.67;70.24
21877;BME280;11103;43.788;23.710;2023-01-30T11:04:30;147533.97;;;4.61;70.06
21877;BME280;11103;43.788;23.710;2023-01-30T11:07:00;147537.78;;;4.62;70.24
21877;BME280;11103;43.788;23.710;2023-01-30T11:09:40;147564.50;;;4.73;70.08
21877;BME280;11103;43.788;23.710;2023-01-30T11:12:06;147581.06;;;4.79;68.39
21877;BME280;11103;43.788;23.710;2023-01-30T11:14:58;147621.81;;;4.96;68.93
21877;BME280;11103;43.788;23.710;2023-01-30T11:17:35;147661.28;;;5.11;67.23
21877;BME280;11103;43.788;23.710;2023-01-30T11:20:23;147677.84;;;5.18;67.31
21877;BME280;11103;43.788;23.710;2023-01-30T11:22:51;147638.38;;;5.02;65.36
21877;BME280;11103;43.788;23.710;2023-01-30T11:25:20;147649.84;;;5.07;66.19
21877;BME280;11103;43.788;23.710;2023-01-30T11:28:01;147643.47;;;5.04;65.77
21877;BME280;11103;43.788;23.710;2023-01-30T11:30:37;147629.47;;;4.99;66.84
21877;BME280;11103;43.788;23.710;2023-01-30T11:33:12;147632.03;;;5.00;67.00
21877;BME280;11103;43.788;23.710;2023-01-30T11:38:12;147670.22;;;5.15;67.54
21877;BME280;11103;43.788;23.710;2023-01-30T11:40:44;147710.97;;;5.31;67.59
21877;BME280;11103;43.788;23.710;2023-01-30T11:43:12;147682.94;;;5.20;66.21
21877;BME280;11103;43.788;23.710;2023-01-30T11:45:43;147688.00;;;5.22;66.39
21877;BME280;11103;43.788;23.710;2023-01-30T11:48:17;147705.88;;;5.29;66.33
21877;BME280;11103;43.788;23.710;2023-01-30T11:50:46;147733.91;;;5.40;67.19
21877;BME280;11103;43.788;23.710;2023-01-30T11:53:38;147759.38;;;5.50;66.36
21877;BME280;11103;43.788;23.710;2023-01-30T11:56:11;147759.38;;;5.50;66.92
21877;BME280;11103;43.788;23.710;2023-01-30T11:58:39;147733.91;;;5.40;66.89
21877;BME280;11103;43.788;23.710;2023-01-30T12:01:08;147733.91;;;5.40;66.05
21877;BME280;11103;43.788;23.710;2023-01-30T12:03:38;147739.00;;;5.42;65.79
21877;BME280;11103;43.788;23.710;2023-01-30T12:06:08;147662.56;;;5.12;65.16
21877;BME280;11103;43.788;23.710;2023-01-30T12:08:39;147632.03;;;5.00;65.62
21877;BME280;11103;43.788;23.710;2023-01-30T12:11:23;147616.72;;;4.94;66.03
21877;BME280;11103;43.788;23.710;2023-01-30T12:13:50;147642.19;;;5.04;67.28
21877;BME280;11103;43.788;23.710;2023-01-30T12:22:21;147696.94;;;5.25;65.59
21877;BME280;11103;43.788;23.710;2023-01-30T12:25:03;147732.63;;;5.39;65.00
21877;BME280;11103;43.788;23.710;2023-01-30T12:32:47;147634.53;;;5.01;63.13
21877;BME280;11103;43.788;23.710;2023-01-30T12:35:15;147637.09;;;5.02;65.12
21877;BME280;11103;43.788;23.710;2023-01-30T12:45:25;147518.69;;;4.55;65.92
21877;BME280;11103;43.788;23.710;2023-01-30T12:58:39;147626.88;;;4.98;66.48
21877;BME280;11103;43.788;23.710;2023-01-30T13:01:53;147658.75;;;5.10;65.02
21877;BME280;11103;43.788;23.710;2023-01-30T13:04:45;147634.53;;;5.01;66.20
21877;BME280;11103;43.788;23.710;2023-01-30T13:10:14;147665.13;;;5.13;66.21
21877;BME280;11103;43.788;23.710;2023-01-30T13:12:54;147663.84;;;5.12;66.11
21877;BME280;11103;43.788;23.710;2023-01-30T13:15:34;147671.50;;;5.15;65.99
21877;BME280;11103;43.788;23.710;2023-01-30T13:21:00;147648.56;;;5.06;65.01
21877;BME280;11103;43.788;23.710;2023-01-30T13:26:04;147665.13;;;5.13;64.75
21877;BME280;11103;43.788;23.710;2023-01-30T13:28:55;147666.41;;;5.13;65.30
21877;BME280;11103;43.788;23.710;2023-01-30T13:31:24;147682.94;;;5.20;64.63
21877;BME280;11103;43.788;23.710;2023-01-30T13:34:21;147726.25;;;5.37;63.83
21877;BME280;11103;43.788;23.710;2023-01-30T13:37:02;147721.16;;;5.35;64.13
21877;BME280;11103;43.788;23.710;2023-01-30T13:42:37;147714.81;;;5.32;65.51
21877;BME280;11103;43.788;23.710;2023-01-30T13:45:05;147703.31;;;5.28;65.33
21877;BME280;11103;43.788;23.710;2023-01-30T13:53:06;147621.81;;;4.96;64.33
21877;BME280;11103;43.788;23.710;2023-01-30T14:00:30;147550.50;;;4.67;65.82
21877;BME280;11103;43.788;23.710;2023-01-30T14:08:29;147528.91;;;4.59;66.44
21877;BME280;11103;43.788;23.710;2023-01-30T14:10:57;147521.25;;;4.56;66.52
21877;BME280;11103;43.788;23.710;2023-01-30T14:13:24;147528.91;;;4.59;66.30
21877;BME280;11103;43.788;23.710;2023-01-30T14:15:59;147494.53;;;4.45;67.51
21877;BME280;11103;43.788;23.710;2023-01-30T14:18:33;147497.03;;;4.46;67.21
21877;BME280;11103;43.788;23.710;2023-01-30T14:21:22;147503.41;;;4.49;68.22
21877;BME280;11103;43.788;23.710;2023-01-30T14:24:03;147512.31;;;4.52;69.51
21877;BME280;11103;43.788;23.710;2023-01-30T14:37:30;147353.25;;;3.89;70.15
21877;BME280;11103;43.788;23.710;2023-01-30T14:48:41;147275.72;;;3.58;72.04
21877;BME280;11103;43.788;23.710;2023-01-30T14:57:01;147238.81;;;3.44;73.99
21877;BME280;11103;43.788;23.710;2023-01-30T15:07:26;147158.72;;;3.12;77.24
21877;BME280;11103;43.788;23.710;2023-01-30T15:21:14;147045.59;;;2.67;82.36
21877;BME280;11103;43.788;23.710;2023-01-30T15:31:55;146950.31;;;2.29;87.08
21877;BME280;11103;43.788;23.710;2023-01-30T15:34:22;146932.56;;;2.22;87.75
21877;BME280;11103;43.788;23.710;2023-01-30T15:36:48;146904.63;;;2.11;88.17
21877;BME280;11103;43.788;23.710;2023-01-30T15:39:21;146865.25;;;1.96;88.86
21877;BME280;11103;43.788;23.710;2023-01-30T15:41:48;146858.88;;;1.93;90.22
21877;BME280;11103;43.788;23.710;2023-01-30T15:50:17;146796.69;;;1.68;93.52
21877;BME280;11103;43.788;23.710;2023-01-30T15:52:45;146781.47;;;1.62;94.18
21877;BME280;11103;43.788;23.710;2023-01-30T15:55:22;146771.28;;;1.58;93.97